sensor_id;sensor_type;location;lat;lon;timestamp;P1;durP1;ratioP1;P2;durP2;ratioP2
65567;SDS011;52211;50.154;8.682;2022-07-29T00:01:39;3.60;;;2.80;;
65567;SDS011;52211;50.154;8.682;2022-07-29T00:04:12;2.53;;;2.43;;
65567;SDS011;52211;50.154;8.682;2022-07-29T00:06:39;2.60;;;2.50;;
65567;SDS011;52211;50.154;8.682;2022-07-29T00:09:07;2.73;;;2.53;;
65567;SDS011;52211;50.154;8.682;2022-07-29T00:11:34;2.87;;;2.50;;
65567;SDS011;52211;50.154;8.682;2022-07-29T00:14:01;3.00;;;2.80;;
65567;SDS011;52211;50.154;8.682;2022-07-29T00:16:28;3.00;;;2.80;;
65567;SDS011;52211;50.154;8.682;2022-07-29T00:18:55;2.80;;;2.70;;
65567;SDS011;52211;50.154;8.682;2022-07-29T00:21:27;2.67;;;2.50;;
65567;SDS011;52211;50.154;8.682;2022-07-29T00:23:57;2.83;;;2.50;;
65567;SDS011;52211;50.154;8.682;2022-07-29T00:26:24;3.07;;;2.87;;
65567;SDS011;52211;50.154;8.682;2022-07-29T00:29:01;2.63;;;2.53;;
65567;SDS011;52211;50.154;8.682;2022-07-29T00:31:52;3.13;;;2.83;;
65567;SDS011;52211;50.154;8.682;2022-07-29T00:34:21;2.90;;;2.73;;
65567;SDS011;52211;50.154;8.682;2022-07-29T00:37:06;2.57;;;2.43;;
65567;SDS011;52211;50.154;8.682;2022-07-29T00:39:33;2.90;;;2.70;;
65567;SDS011;52211;50.154;8.682;2022-07-29T00:42:04;2.70;;;2.60;;
65567;SDS011;52211;50.154;8.682;2022-07-29T00:44:35;2.73;;;2.53;;
65567;SDS011;52211;50.154;8.682;2022-07-29T00:47:07;2.97;;;2.77;;
65567;SDS011;52211;50.154;8.682;2022-07-29T00:49:37;2.50;;;2.40;;
65567;SDS011;52211;50.154;8.682;2022-07-29T00:52:10;2.70;;;2.50;;
65567;SDS011;52211;50.154;8.682;2022-07-29T00:54:41;3.33;;;3.13;;
65567;SDS011;52211;50.154;8.682;2022-07-29T00:57:10;2.77;;;2.67;;
65567;SDS011;52211;50.154;8.682;2022-07-29T00:59:38;2.93;;;2.73;;
65567;SDS011;52211;50.154;8.682;2022-07-29T01:02:09;2.90;;;2.50;;
65567;SDS011;52211;50.154;8.682;2022-07-29T01:04:36;2.93;;;2.70;;
65567;SDS011;52211;50.154;8.682;2022-07-29T01:07:03;2.73;;;2.53;;
65567;SDS011;52211;50.154;8.682;2022-07-29T01:09:33;3.10;;;2.90;;
65567;SDS011;52211;50.154;8.682;2022-07-29T01:12:13;2.70;;;2.53;;
65567;SDS011;52211;50.154;8.682;2022-07-29T01:14:49;3.33;;;2.60;;
65567;SDS011;52211;50.154;8.682;2022-07-29T01:25:44;3.00;;;2.80;;
65567;SDS011;52211;50.154;8.682;2022-07-29T01:29:02;2.90;;;2.70;;
65567;SDS011;52211;50.154;8.682;2022-07-29T01:32:07;3.40;;;2.67;;
65567;SDS011;52211;50.154;8.682;2022-07-29T01:34:55;2.77;;;2.57;;
65567;SDS011;52211;50.154;8.682;2022-07-29T01:37:38;2.60;;;2.50;;
65567;SDS011;52211;50.154;8.682;2022-07-29T01:42:59;2.67;;;2.47;;
65567;SDS011;52211;50.154;8.682;2022-07-29T01:45:45;3.00;;;2.80;;
65567;SDS011;52211;50.154;8.682;2022-07-29T01:48:29;3.23;;;2.80;;
65567;SDS011;52211;50.154;8.682;2022-07-29T01:53:46;2.83;;;2.63;;
65567;SDS011;52211;50.154;8.682;2022-07-29T01:56:23;2.90;;;2.70;;
65567;SDS011;52211;50.154;8.682;2022-07-29T01:58:58;3.27;;;3.07;;
65567;SDS011;52211;50.154;8.682;2022-07-29T02:01:28;3.03;;;2.83;;
65567;SDS011;52211;50.154;8.682;2022-07-29T02:04:04;2.70;;;2.50;;
65567;SDS011;52211;50.154;8.682;2022-07-29T02:07:03;3.10;;;2.90;;
65567;SDS011;52211;50.154;8.682;2022-07-29T02:09:35;3.13;;;2.70;;
65567;SDS011;52211;50.154;8.682;2022-07-29T02:12:13;3.13;;;2.93;;
65567;SDS011;52211;50.154;8.682;2022-07-29T02:14:47;3.47;;;3.27;;
65567;SDS011;52211;50.154;8.682;2022-07-29T02:17:24;2.90;;;2.80;;
65567;SDS011;52211;50.154;8.682;2022-07-29T02:19:57;3.83;;;3.33;;
65567;SDS011;52211;50.154;8.682;2022-07-29T02:22:33;3.20;;;2.90;;
65567;SDS011;52211;50.154;8.682;2022-07-29T02:25:07;3.33;;;3.00;;
65567;SDS011;52211;50.154;8.682;2022-07-29T02:27:39;3.00;;;2.90;;
65567;SDS011;52211;50.154;8.682;2022-07-29T02:30:10;3.33;;;3.07;;
65567;SDS011;52211;50.154;8.682;2022-07-29T02:32:39;3.20;;;3.10;;
65567;SDS011;52211;50.154;8.682;2022-07-29T02:35:13;4.23;;;3.23;;
65567;SDS011;52211;50.154;8.682;2022-07-29T02:37:44;3.20;;;3.00;;
65567;SDS011;52211;50.154;8.682;2022-07-29T02:40:34;3.30;;;3.13;;
65567;SDS011;52211;50.154;8.682;2022-07-29T02:43:05;3.20;;;3.10;;
65567;SDS011;52211;50.154;8.682;2022-07-29T02:45:34;3.57;;;3.23;;
65567;SDS011;52211;50.154;8.682;2022-07-29T02:48:09;3.23;;;3.03;;
65567;SDS011;52211;50.154;8.682;2022-07-29T02:50:44;6.07;;;3.53;;
65567;SDS011;52211;50.154;8.682;2022-07-29T02:53:25;3.53;;;3.23;;
65567;SDS011;52211;50.154;8.682;2022-07-29T02:55:59;2.80;;;2.70;;
65567;SDS011;52211;50.154;8.682;2022-07-29T02:58:35;3.77;;;3.47;;
65567;SDS011;52211;50.154;8.682;2022-07-29T03:01:11;3.53;;;3.23;;
65567;SDS011;52211;50.154;8.682;2022-07-29T03:03:52;3.43;;;3.23;;
65567;SDS011;52211;50.154;8.682;2022-07-29T03:06:21;3.50;;;3.00;;
65567;SDS011;52211;50.154;8.682;2022-07-29T03:09:06;3.87;;;3.20;;
65567;SDS011;52211;50.154;8.682;2022-07-29T03:11:39;4.10;;;3.70;;
65567;SDS011;52211;50.154;8.682;2022-07-29T03:14:16;3.80;;;3.40;;
65567;SDS011;52211;50.154;8.682;2022-07-29T03:16:49;3.10;;;2.90;;
65567;SDS011;52211;50.154;8.682;2022-07-29T03:19:19;3.57;;;3.27;;
65567;SDS011;52211;50.154;8.682;2022-07-29T03:21:49;3.60;;;3.40;;
65567;SDS011;52211;50.154;8.682;2022-07-29T03:24:27;4.10;;;3.63;;
65567;SDS011;52211;50.154;8.682;2022-07-29T03:27:02;3.23;;;3.00;;
65567;SDS011;52211;50.154;8.682;2022-07-29T03:29:32;3.80;;;3.50;;
65567;SDS011;52211;50.154;8.682;2022-07-29T03:32:00;3.73;;;3.37;;
65567;SDS011;52211;50.154;8.682;2022-07-29T03:34:34;2.97;;;2.87;;
65567;SDS011;52211;50.154;8.682;2022-07-29T03:37:04;3.30;;;3.10;;
65567;SDS011;52211;50.154;8.682;2022-07-29T03:39:35;3.43;;;3.17;;
65567;SDS011;52211;50.154;8.682;2022-07-29T03:42:10;3.67;;;3.43;;
65567;SDS011;52211;50.154;8.682;2022-07-29T03:44:44;3.60;;;3.40;;
65567;SDS011;52211;50.154;8.682;2022-07-29T03:47:14;3.70;;;3.33;;
65567;SDS011;52211;50.154;8.682;2022-07-29T03:49:46;3.40;;;3.20;;
65567;SDS011;52211;50.154;8.682;2022-07-29T03:52:18;3.20;;;3.00;;
65567;SDS011;52211;50.154;8.682;2022-07-29T03:54:48;4.47;;;3.43;;
65567;SDS011;52211;50.154;8.682;2022-07-29T03:57:17;4.57;;;4.17;;
65567;SDS011;52211;50.154;8.682;2022-07-29T03:59:51;3.53;;;3.33;;
65567;SDS011;52211;50.154;8.682;2022-07-29T04:02:22;3.80;;;3.60;;
65567;SDS011;52211;50.154;8.682;2022-07-29T04:04:56;3.37;;;3.07;;
65567;SDS011;52211;50.154;8.682;2022-07-29T04:07:23;3.50;;;3.20;;
65567;SDS011;52211;50.154;8.682;2022-07-29T04:09:50;3.70;;;3.40;;
65567;SDS011;52211;50.154;8.682;2022-07-29T04:12:17;3.53;;;3.33;;
65567;SDS011;52211;50.154;8.682;2022-07-29T04:14:45;3.60;;;3.40;;
65567;SDS011;52211;50.154;8.682;2022-07-29T04:17:14;4.10;;;3.30;;
65567;SDS011;52211;50.154;8.682;2022-07-29T04:19:41;4.03;;;3.73;;
65567;SDS011;52211;50.154;8.682;2022-07-29T04:22:11;3.93;;;3.63;;
65567;SDS011;52211;50.154;8.682;2022-07-29T04:24:39;3.90;;;3.60;;
65567;SDS011;52211;50.154;8.682;2022-07-29T04:27:09;4.10;;;3.70;;
65567;SDS011;52211;50.154;8.682;2022-07-29T04:29:39;3.37;;;3.07;;
65567;SDS011;52211;50.154;8.682;2022-07-29T04:32:25;4.47;;;3.20;;
65567;SDS011;52211;50.154;8.682;2022-07-29T04:34:52;3.33;;;3.13;;
65567;SDS011;52211;50.154;8.682;2022-07-29T04:37:19;3.20;;;3.00;;
65567;SDS011;52211;50.154;8.682;2022-07-29T04:39:48;4.67;;;3.23;;
65567;SDS011;52211;50.154;8.682;2022-07-29T04:42:16;3.73;;;3.43;;
65567;SDS011;52211;50.154;8.682;2022-07-29T04:44:52;3.50;;;3.30;;
65567;SDS011;52211;50.154;8.682;2022-07-29T04:47:19;3.33;;;3.13;;
65567;SDS011;52211;50.154;8.682;2022-07-29T04:49:48;3.50;;;3.20;;
65567;SDS011;52211;50.154;8.682;2022-07-29T04:52:19;3.40;;;3.20;;
65567;SDS011;52211;50.154;8.682;2022-07-29T04:54:48;4.30;;;3.93;;
65567;SDS011;52211;50.154;8.682;2022-07-29T04:57:15;3.20;;;3.00;;
65567;SDS011;52211;50.154;8.682;2022-07-29T04:59:42;5.97;;;3.90;;
65567;SDS011;52211;50.154;8.682;2022-07-29T05:02:13;3.73;;;3.53;;
65567;SDS011;52211;50.154;8.682;2022-07-29T05:04:43;3.77;;;3.33;;
65567;SDS011;52211;50.154;8.682;2022-07-29T05:07:10;3.33;;;3.13;;
65567;SDS011;52211;50.154;8.682;2022-07-29T05:09:42;3.43;;;3.20;;
65567;SDS011;52211;50.154;8.682;2022-07-29T05:12:09;3.63;;;3.43;;
65567;SDS011;52211;50.154;8.682;2022-07-29T05:14:40;3.20;;;3.03;;
65567;SDS011;52211;50.154;8.682;2022-07-29T05:17:10;3.90;;;3.60;;
65567;SDS011;52211;50.154;8.682;2022-07-29T05:19:39;3.73;;;3.23;;
65567;SDS011;52211;50.154;8.682;2022-07-29T05:22:06;3.83;;;3.63;;
65567;SDS011;52211;50.154;8.682;2022-07-29T05:24:35;3.80;;;3.50;;
65567;SDS011;52211;50.154;8.682;2022-07-29T05:27:02;3.53;;;3.33;;
65567;SDS011;52211;50.154;8.682;2022-07-29T05:29:31;4.53;;;3.37;;
65567;SDS011;52211;50.154;8.682;2022-07-29T05:32:11;4.23;;;4.03;;
65567;SDS011;52211;50.154;8.682;2022-07-29T05:34:39;3.60;;;3.40;;
65567;SDS011;52211;50.154;8.682;2022-07-29T05:37:17;3.60;;;3.40;;
65567;SDS011;52211;50.154;8.682;2022-07-29T05:39:45;3.27;;;3.10;;
65567;SDS011;52211;50.154;8.682;2022-07-29T05:42:22;5.37;;;3.37;;
65567;SDS011;52211;50.154;8.682;2022-07-29T05:44:55;3.60;;;3.30;;
65567;SDS011;52211;50.154;8.682;2022-07-29T05:47:22;4.20;;;3.80;;
65567;SDS011;52211;50.154;8.682;2022-07-29T05:49:49;3.30;;;3.10;;
65567;SDS011;52211;50.154;8.682;2022-07-29T05:52:20;3.40;;;3.20;;
65567;SDS011;52211;50.154;8.682;2022-07-29T05:54:49;3.77;;;3.20;;
65567;SDS011;52211;50.154;8.682;2022-07-29T05:57:20;3.33;;;3.13;;
65567;SDS011;52211;50.154;8.682;2022-07-29T05:59:49;3.73;;;3.37;;
65567;SDS011;52211;50.154;8.682;2022-07-29T06:02:17;2.93;;;2.83;;
65567;SDS011;52211;50.154;8.682;2022-07-29T06:04:44;4.53;;;3.30;;
65567;SDS011;52211;50.154;8.682;2022-07-29T06:07:13;3.43;;;3.17;;
65567;SDS011;52211;50.154;8.682;2022-07-29T06:09:42;3.30;;;3.10;;
65567;SDS011;52211;50.154;8.682;2022-07-29T06:12:11;3.10;;;2.90;;
65567;SDS011;52211;50.154;8.682;2022-07-29T06:14:38;3.63;;;3.50;;
65567;SDS011;52211;50.154;8.682;2022-07-29T06:17:07;3.60;;;3.40;;
65567;SDS011;52211;50.154;8.682;2022-07-29T06:19:37;3.30;;;3.10;;
65567;SDS011;52211;50.154;8.682;2022-07-29T06:22:06;3.50;;;3.30;;
65567;SDS011;52211;50.154;8.682;2022-07-29T06:24:33;3.97;;;3.77;;
65567;SDS011;52211;50.154;8.682;2022-07-29T06:27:07;3.10;;;3.00;;
65567;SDS011;52211;50.154;8.682;2022-07-29T06:29:35;3.60;;;3.40;;
65567;SDS011;52211;50.154;8.682;2022-07-29T06:32:05;3.70;;;3.50;;
65567;SDS011;52211;50.154;8.682;2022-07-29T06:34:32;3.57;;;3.27;;
65567;SDS011;52211;50.154;8.682;2022-07-29T06:37:02;3.60;;;3.30;;
65567;SDS011;52211;50.154;8.682;2022-07-29T06:39:40;3.93;;;3.47;;
65567;SDS011;52211;50.154;8.682;2022-07-29T06:42:07;3.53;;;3.33;;
65567;SDS011;52211;50.154;8.682;2022-07-29T06:44:34;4.30;;;4.00;;
65567;SDS011;52211;50.154;8.682;2022-07-29T06:47:03;4.23;;;3.93;;
65567;SDS011;52211;50.154;8.682;2022-07-29T06:49:32;4.20;;;3.83;;
65567;SDS011;52211;50.154;8.682;2022-07-29T06:51:59;4.47;;;4.10;;
65567;SDS011;52211;50.154;8.682;2022-07-29T06:54:28;4.33;;;4.03;;
65567;SDS011;52211;50.154;8.682;2022-07-29T06:56:57;3.90;;;3.60;;
65567;SDS011;52211;50.154;8.682;2022-07-29T06:59:25;4.20;;;3.90;;
65567;SDS011;52211;50.154;8.682;2022-07-29T07:02:00;3.33;;;3.10;;
65567;SDS011;52211;50.154;8.682;2022-07-29T07:04:30;3.80;;;3.50;;
65567;SDS011;52211;50.154;8.682;2022-07-29T07:06:57;3.60;;;3.40;;
65567;SDS011;52211;50.154;8.682;2022-07-29T07:09:25;3.57;;;3.27;;
65567;SDS011;52211;50.154;8.682;2022-07-29T07:12:05;3.60;;;3.40;;
65567;SDS011;52211;50.154;8.682;2022-07-29T07:14:33;5.23;;;3.50;;
65567;SDS011;52211;50.154;8.682;2022-07-29T07:17:02;3.80;;;3.60;;
65567;SDS011;52211;50.154;8.682;2022-07-29T07:19:30;3.50;;;3.30;;
65567;SDS011;52211;50.154;8.682;2022-07-29T07:21:59;4.10;;;3.70;;
65567;SDS011;52211;50.154;8.682;2022-07-29T07:24:26;3.40;;;3.20;;
65567;SDS011;52211;50.154;8.682;2022-07-29T07:26:53;3.70;;;3.50;;
65567;SDS011;52211;50.154;8.682;2022-07-29T07:29:22;4.20;;;3.80;;
65567;SDS011;52211;50.154;8.682;2022-07-29T07:31:54;5.20;;;3.57;;
65567;SDS011;52211;50.154;8.682;2022-07-29T07:34:26;4.47;;;3.63;;
65567;SDS011;52211;50.154;8.682;2022-07-29T07:36:57;3.73;;;3.47;;
65567;SDS011;52211;50.154;8.682;2022-07-29T07:39:26;3.40;;;3.20;;
65567;SDS011;52211;50.154;8.682;2022-07-29T07:41:56;3.80;;;3.50;;
65567;SDS011;52211;50.154;8.682;2022-07-29T07:44:25;3.73;;;3.40;;
65567;SDS011;52211;50.154;8.682;2022-07-29T07:46:52;3.90;;;3.60;;
65567;SDS011;52211;50.154;8.682;2022-07-29T07:49:21;3.57;;;3.37;;
65567;SDS011;52211;50.154;8.682;2022-07-29T07:51:52;3.23;;;3.00;;
65567;SDS011;52211;50.154;8.682;2022-07-29T07:54:19;4.23;;;3.67;;
65567;SDS011;52211;50.154;8.682;2022-07-29T07:56:48;3.73;;;3.47;;
65567;SDS011;52211;50.154;8.682;2022-07-29T07:59:19;3.30;;;3.10;;
65567;SDS011;52211;50.154;8.682;2022-07-29T08:01:49;3.63;;;3.30;;
65567;SDS011;52211;50.154;8.682;2022-07-29T08:04:21;4.17;;;3.67;;
65567;SDS011;52211;50.154;8.682;2022-07-29T08:06:54;3.80;;;3.50;;
65567;SDS011;52211;50.154;8.682;2022-07-29T08:09:25;3.27;;;3.07;;
65567;SDS011;52211;50.154;8.682;2022-07-29T08:11:56;5.03;;;3.40;;
65567;SDS011;52211;50.154;8.682;2022-07-29T08:14:28;3.30;;;3.13;;
65567;SDS011;52211;50.154;8.682;2022-07-29T08:16:56;3.50;;;3.20;;
65567;SDS011;52211;50.154;8.682;2022-07-29T08:19:28;3.50;;;3.20;;
65567;SDS011;52211;50.154;8.682;2022-07-29T08:21:57;3.70;;;3.40;;
65567;SDS011;52211;50.154;8.682;2022-07-29T08:24:23;3.47;;;3.27;;
65567;SDS011;52211;50.154;8.682;2022-07-29T08:27:12;3.40;;;3.10;;
65567;SDS011;52211;50.154;8.682;2022-07-29T08:30:00;3.33;;;3.03;;
65567;SDS011;52211;50.154;8.682;2022-07-29T08:32:32;3.20;;;3.03;;
65567;SDS011;52211;50.154;8.682;2022-07-29T08:35:22;3.40;;;3.13;;
65567;SDS011;52211;50.154;8.682;2022-07-29T08:37:52;3.67;;;3.10;;
65567;SDS011;52211;50.154;8.682;2022-07-29T08:40:22;3.30;;;3.10;;
65567;SDS011;52211;50.154;8.682;2022-07-29T08:42:57;4.67;;;3.63;;
65567;SDS011;52211;50.154;8.682;2022-07-29T08:45:43;4.80;;;3.63;;
65567;SDS011;52211;50.154;8.682;2022-07-29T08:48:19;3.97;;;3.60;;
65567;SDS011;52211;50.154;8.682;2022-07-29T08:50:54;3.50;;;3.30;;
65567;SDS011;52211;50.154;8.682;2022-07-29T08:53:24;3.70;;;3.40;;
65567;SDS011;52211;50.154;8.682;2022-07-29T08:55:54;3.53;;;3.33;;
65567;SDS011;52211;50.154;8.682;2022-07-29T08:58:23;3.50;;;3.20;;
65567;SDS011;52211;50.154;8.682;2022-07-29T09:00:53;5.03;;;4.63;;
65567;SDS011;52211;50.154;8.682;2022-07-29T09:03:26;3.80;;;3.50;;
65567;SDS011;52211;50.154;8.682;2022-07-29T09:05:58;3.20;;;2.93;;
65567;SDS011;52211;50.154;8.682;2022-07-29T09:08:30;3.60;;;3.40;;
65567;SDS011;52211;50.154;8.682;2022-07-29T09:11:00;3.70;;;3.50;;
65567;SDS011;52211;50.154;8.682;2022-07-29T09:13:31;3.73;;;3.43;;
65567;SDS011;52211;50.154;8.682;2022-07-29T09:16:02;3.47;;;3.10;;
65567;SDS011;52211;50.154;8.682;2022-07-29T09:18:36;3.30;;;3.10;;
65567;SDS011;52211;50.154;8.682;2022-07-29T09:21:06;3.60;;;3.40;;
65567;SDS011;52211;50.154;8.682;2022-07-29T09:26:46;4.27;;;3.40;;
65567;SDS011;52211;50.154;8.682;2022-07-29T09:29:14;3.77;;;3.57;;
65567;SDS011;52211;50.154;8.682;2022-07-29T09:31:49;3.60;;;3.30;;
65567;SDS011;52211;50.154;8.682;2022-07-29T09:34:22;3.40;;;3.10;;
65567;SDS011;52211;50.154;8.682;2022-07-29T09:36:52;3.30;;;3.10;;
65567;SDS011;52211;50.154;8.682;2022-07-29T09:39:30;3.47;;;3.27;;
65567;SDS011;52211;50.154;8.682;2022-07-29T09:42:12;6.47;;;3.30;;
65567;SDS011;52211;50.154;8.682;2022-07-29T09:44:42;3.37;;;3.07;;
65567;SDS011;52211;50.154;8.682;2022-07-29T09:47:18;3.57;;;3.27;;
65567;SDS011;52211;50.154;8.682;2022-07-29T09:49:53;4.20;;;3.10;;
65567;SDS011;52211;50.154;8.682;2022-07-29T09:52:30;4.47;;;3.90;;
65567;SDS011;52211;50.154;8.682;2022-07-29T09:55:04;3.20;;;3.00;;
65567;SDS011;52211;50.154;8.682;2022-07-29T09:57:43;3.23;;;3.07;;
65567;SDS011;52211;50.154;8.682;2022-07-29T10:00:16;4.33;;;3.60;;
65567;SDS011;52211;50.154;8.682;2022-07-29T10:02:48;3.30;;;3.10;;
65567;SDS011;52211;50.154;8.682;2022-07-29T10:05:24;3.00;;;2.90;;
65567;SDS011;52211;50.154;8.682;2022-07-29T10:08:02;3.67;;;3.40;;
65567;SDS011;52211;50.154;8.682;2022-07-29T10:10:31;3.70;;;3.40;;
65567;SDS011;52211;50.154;8.682;2022-07-29T10:13:04;3.40;;;3.20;;
65567;SDS011;52211;50.154;8.682;2022-07-29T10:15:41;6.43;;;4.10;;
65567;SDS011;52211;50.154;8.682;2022-07-29T10:18:13;6.23;;;5.60;;
65567;SDS011;52211;50.154;8.682;2022-07-29T10:20:43;3.73;;;3.43;;
65567;SDS011;52211;50.154;8.682;2022-07-29T10:23:10;4.97;;;4.53;;
65567;SDS011;52211;50.154;8.682;2022-07-29T10:25:38;4.60;;;4.13;;
65567;SDS011;52211;50.154;8.682;2022-07-29T10:28:11;3.77;;;3.57;;
65567;SDS011;52211;50.154;8.682;2022-07-29T10:30:44;4.00;;;3.57;;
65567;SDS011;52211;50.154;8.682;2022-07-29T10:36:38;4.00;;;3.27;;
65567;SDS011;52211;50.154;8.682;2022-07-29T10:42:27;4.40;;;4.10;;
65567;SDS011;52211;50.154;8.682;2022-07-29T10:44:59;3.57;;;3.23;;
65567;SDS011;52211;50.154;8.682;2022-07-29T10:47:29;7.33;;;3.70;;
65567;SDS011;52211;50.154;8.682;2022-07-29T10:50:04;5.10;;;3.77;;
65567;SDS011;52211;50.154;8.682;2022-07-29T10:55:37;5.53;;;4.10;;
65567;SDS011;52211;50.154;8.682;2022-07-29T11:00:49;4.00;;;3.80;;
65567;SDS011;52211;50.154;8.682;2022-07-29T11:06:21;3.50;;;3.23;;
65567;SDS011;52211;50.154;8.682;2022-07-29T11:12:03;4.83;;;4.47;;
65567;SDS011;52211;50.154;8.682;2022-07-29T11:17:28;4.03;;;3.83;;
65567;SDS011;52211;50.154;8.682;2022-07-29T11:23:26;3.50;;;3.30;;
65567;SDS011;52211;50.154;8.682;2022-07-29T11:28:50;4.40;;;4.10;;
65567;SDS011;52211;50.154;8.682;2022-07-29T11:45:04;3.53;;;3.37;;
65567;SDS011;52211;50.154;8.682;2022-07-29T11:48:05;3.97;;;3.63;;
65567;SDS011;52211;50.154;8.682;2022-07-29T11:50:55;4.05;;;3.80;;
65567;SDS011;52211;50.154;8.682;2022-07-29T11:53:23;4.35;;;4.05;;
65567;SDS011;52211;50.154;8.682;2022-07-29T11:55:57;4.30;;;3.90;;
65567;SDS011;52211;50.154;8.682;2022-07-29T11:58:30;3.90;;;3.70;;
65567;SDS011;52211;50.154;8.682;2022-07-29T12:01:03;4.32;;;4.13;;
65567;SDS011;52211;50.154;8.682;2022-07-29T12:03:31;3.88;;;3.67;;
65567;SDS011;52211;50.154;8.682;2022-07-29T12:06:19;4.30;;;4.00;;
65567;SDS011;52211;50.154;8.682;2022-07-29T12:08:46;4.70;;;4.40;;
65567;SDS011;52211;50.154;8.682;2022-07-29T12:11:17;4.45;;;4.15;;
65567;SDS011;52211;50.154;8.682;2022-07-29T12:13:52;4.35;;;4.05;;
65567;SDS011;52211;50.154;8.682;2022-07-29T12:16:21;3.45;;;3.30;;
65567;SDS011;52211;50.154;8.682;2022-07-29T12:18:55;5.03;;;4.60;;
65567;SDS011;52211;50.154;8.682;2022-07-29T12:21:28;4.65;;;3.88;;
65567;SDS011;52211;50.154;8.682;2022-07-29T12:24:18;4.22;;;3.85;;
65567;SDS011;52211;50.154;8.682;2022-07-29T12:26:51;3.80;;;3.50;;
65567;SDS011;52211;50.154;8.682;2022-07-29T12:29:24;4.80;;;4.47;;
65567;SDS011;52211;50.154;8.682;2022-07-29T12:32:01;6.15;;;5.68;;
65567;SDS011;52211;50.154;8.682;2022-07-29T12:34:40;5.00;;;4.70;;
65567;SDS011;52211;50.154;8.682;2022-07-29T12:37:09;4.60;;;4.15;;
65567;SDS011;52211;50.154;8.682;2022-07-29T12:39:37;5.00;;;4.30;;
65567;SDS011;52211;50.154;8.682;2022-07-29T12:42:11;4.70;;;4.40;;
65567;SDS011;52211;50.154;8.682;2022-07-29T12:44:47;4.85;;;4.00;;
65567;SDS011;52211;50.154;8.682;2022-07-29T12:47:18;4.63;;;4.28;;
65567;SDS011;52211;50.154;8.682;2022-07-29T12:49:47;5.13;;;4.78;;
65567;SDS011;52211;50.154;8.682;2022-07-29T12:52:27;5.68;;;5.28;;
65567;SDS011;52211;50.154;8.682;2022-07-29T12:55:00;4.63;;;4.35;;
65567;SDS011;52211;50.154;8.682;2022-07-29T12:57:30;5.30;;;5.00;;
65567;SDS011;52211;50.154;8.682;2022-07-29T13:00:12;4.22;;;4.03;;
65567;SDS011;52211;50.154;8.682;2022-07-29T13:02:42;4.65;;;4.25;;
65567;SDS011;52211;50.154;8.682;2022-07-29T13:05:21;4.72;;;4.43;;
65567;SDS011;52211;50.154;8.682;2022-07-29T13:07:48;3.95;;;3.85;;
65567;SDS011;52211;50.154;8.682;2022-07-29T13:10:22;4.20;;;4.00;;
65567;SDS011;52211;50.154;8.682;2022-07-29T13:13:03;4.40;;;4.20;;
65567;SDS011;52211;50.154;8.682;2022-07-29T13:15:38;4.18;;;3.83;;
65567;SDS011;52211;50.154;8.682;2022-07-29T13:18:32;4.00;;;3.75;;
65567;SDS011;52211;50.154;8.682;2022-07-29T13:21:10;3.80;;;3.70;;
65567;SDS011;52211;50.154;8.682;2022-07-29T13:23:41;4.70;;;4.43;;
65567;SDS011;52211;50.154;8.682;2022-07-29T13:26:09;4.35;;;4.00;;
65567;SDS011;52211;50.154;8.682;2022-07-29T13:28:42;4.07;;;3.88;;
65567;SDS011;52211;50.154;8.682;2022-07-29T13:31:11;4.78;;;4.38;;
65567;SDS011;52211;50.154;8.682;2022-07-29T13:33:38;4.70;;;4.30;;
65567;SDS011;52211;50.154;8.682;2022-07-29T13:36:07;4.47;;;4.28;;
65567;SDS011;52211;50.154;8.682;2022-07-29T13:38:36;4.20;;;3.90;;
65567;SDS011;52211;50.154;8.682;2022-07-29T13:41:08;4.18;;;3.88;;
65567;SDS011;52211;50.154;8.682;2022-07-29T13:43:37;4.03;;;3.83;;
65567;SDS011;52211;50.154;8.682;2022-07-29T13:46:06;4.80;;;4.50;;
65567;SDS011;52211;50.154;8.682;2022-07-29T13:48:35;4.43;;;4.22;;
65567;SDS011;52211;50.154;8.682;2022-07-29T13:51:02;4.80;;;4.50;;
65567;SDS011;52211;50.154;8.682;2022-07-29T13:53:34;4.60;;;4.30;;
65567;SDS011;52211;50.154;8.682;2022-07-29T13:56:03;4.85;;;4.47;;
65567;SDS011;52211;50.154;8.682;2022-07-29T13:58:32;4.18;;;3.97;;
65567;SDS011;52211;50.154;8.682;2022-07-29T14:01:02;4.68;;;4.28;;
65567;SDS011;52211;50.154;8.682;2022-07-29T14:03:31;3.85;;;3.65;;
65567;SDS011;52211;50.154;8.682;2022-07-29T14:05:58;3.85;;;3.65;;
65567;SDS011;52211;50.154;8.682;2022-07-29T14:08:26;4.43;;;4.22;;
65567;SDS011;52211;50.154;8.682;2022-07-29T14:10:55;4.38;;;4.18;;
65567;SDS011;52211;50.154;8.682;2022-07-29T14:13:24;3.40;;;3.30;;
65567;SDS011;52211;50.154;8.682;2022-07-29T14:15:54;4.50;;;3.78;;
65567;SDS011;52211;50.154;8.682;2022-07-29T14:18:24;3.58;;;3.42;;
65567;SDS011;52211;50.154;8.682;2022-07-29T14:20:51;4.05;;;3.75;;
65567;SDS011;52211;50.154;8.682;2022-07-29T14:23:20;4.03;;;3.83;;
65567;SDS011;52211;50.154;8.682;2022-07-29T14:25:47;4.72;;;4.38;;
65567;SDS011;52211;50.154;8.682;2022-07-29T14:28:18;4.18;;;3.97;;
65567;SDS011;52211;50.154;8.682;2022-07-29T14:30:48;4.22;;;3.92;;
65567;SDS011;52211;50.154;8.682;2022-07-29T14:33:15;4.90;;;4.53;;
65567;SDS011;52211;50.154;8.682;2022-07-29T14:35:42;4.20;;;3.45;;
65567;SDS011;52211;50.154;8.682;2022-07-29T14:38:12;6.57;;;4.38;;
65567;SDS011;52211;50.154;8.682;2022-07-29T14:40:39;5.47;;;5.07;;
65567;SDS011;52211;50.154;8.682;2022-07-29T14:43:10;5.30;;;4.87;;
65567;SDS011;52211;50.154;8.682;2022-07-29T14:45:37;4.83;;;4.53;;
65567;SDS011;52211;50.154;8.682;2022-07-29T14:48:07;5.60;;;5.10;;
65567;SDS011;52211;50.154;8.682;2022-07-29T14:50:34;5.03;;;4.57;;
65567;SDS011;52211;50.154;8.682;2022-07-29T14:53:01;4.80;;;4.40;;
65567;SDS011;52211;50.154;8.682;2022-07-29T14:55:30;4.83;;;4.53;;
65567;SDS011;52211;50.154;8.682;2022-07-29T14:57:59;4.70;;;4.40;;
65567;SDS011;52211;50.154;8.682;2022-07-29T15:00:40;4.50;;;4.10;;
65567;SDS011;52211;50.154;8.682;2022-07-29T15:03:10;5.53;;;5.10;;
65567;SDS011;52211;50.154;8.682;2022-07-29T15:05:49;4.50;;;4.20;;
65567;SDS011;52211;50.154;8.682;2022-07-29T15:08:19;4.70;;;4.20;;
65567;SDS011;52211;50.154;8.682;2022-07-29T15:10:46;4.60;;;4.30;;
65567;SDS011;52211;50.154;8.682;2022-07-29T15:13:16;4.57;;;4.27;;
65567;SDS011;52211;50.154;8.682;2022-07-29T15:15:42;4.90;;;4.63;;
65567;SDS011;52211;50.154;8.682;2022-07-29T15:18:10;4.57;;;4.27;;
65567;SDS011;52211;50.154;8.682;2022-07-29T15:20:50;3.60;;;3.40;;
65567;SDS011;52211;50.154;8.682;2022-07-29T15:23:19;3.70;;;3.50;;
65567;SDS011;52211;50.154;8.682;2022-07-29T15:25:50;3.53;;;3.33;;
65567;SDS011;52211;50.154;8.682;2022-07-29T15:28:17;4.10;;;3.83;;
65567;SDS011;52211;50.154;8.682;2022-07-29T15:30:44;4.13;;;3.93;;
65567;SDS011;52211;50.154;8.682;2022-07-29T15:33:11;3.50;;;3.40;;
65567;SDS011;52211;50.154;8.682;2022-07-29T15:35:38;3.57;;;3.37;;
65567;SDS011;52211;50.154;8.682;2022-07-29T15:38:08;3.87;;;3.67;;
65567;SDS011;52211;50.154;8.682;2022-07-29T15:40:36;3.47;;;3.37;;
65567;SDS011;52211;50.154;8.682;2022-07-29T15:43:07;3.30;;;3.10;;
65567;SDS011;52211;50.154;8.682;2022-07-29T15:45:37;3.97;;;3.67;;
65567;SDS011;52211;50.154;8.682;2022-07-29T15:48:28;3.50;;;3.37;;
65567;SDS011;52211;50.154;8.682;2022-07-29T15:51:00;3.27;;;3.07;;
65567;SDS011;52211;50.154;8.682;2022-07-29T15:53:32;3.23;;;3.13;;
65567;SDS011;52211;50.154;8.682;2022-07-29T15:56:03;3.70;;;3.50;;
65567;SDS011;52211;50.154;8.682;2022-07-29T15:58:37;4.50;;;3.47;;
65567;SDS011;52211;50.154;8.682;2022-07-29T16:01:04;3.50;;;3.20;;
65567;SDS011;52211;50.154;8.682;2022-07-29T16:03:31;3.53;;;3.30;;
65567;SDS011;52211;50.154;8.682;2022-07-29T16:05:58;3.03;;;2.87;;
65567;SDS011;52211;50.154;8.682;2022-07-29T16:08:30;3.63;;;3.43;;
65567;SDS011;52211;50.154;8.682;2022-07-29T16:11:01;3.23;;;3.13;;
65567;SDS011;52211;50.154;8.682;2022-07-29T16:13:30;4.20;;;4.00;;
65567;SDS011;52211;50.154;8.682;2022-07-29T16:15:57;3.67;;;3.47;;